aviador You're here:

OIIE Decoded Metar

ABYEK in IRAN
Report Time2017-11-25 00:00:00
UTC Time2017-11-25 00:13:10
Flight Rules vfr VFR
Wind300° at 18 kt
W.Decomp.*RWY 29: 17.9 kt HW 1.9 kt RCW
W.Rank300° ranks 1
Current wind is above 300° avg. (10.4)
Visibility9999 m
Phenomena:N/A
Clouds:N/A
Expected CloudBase > 5,200 ft AGL from Temp-Dew spread
CeilingNone
Temp04°C (ISA -4)
Dew Point-9°C (39% RH)
AAT-5.4°C
QNH1019 hPa
Density Alt2,618 ft
Elevation3,304 ft
Report Wrong Elevation
Raw Report
OIIE 250000Z 30018KT CAVOK 04/M09 Q1019 NOSIG=

Extra information for OIIE:More info

Metar Taf Metar & Taf Last 4 Metars F.Rules Stats Wind Profile Meteogram Temp Stats Airport Information Weather charts Add Link Nearby VenuesMetar ALERT Operation Metar Decoded Social comments